Terminal Aerodrome Forecast
Issued by NWS

Home | Current Version | Previous Version | Text Only | Print | Product List | Glossary On
Versions: 1 2 3 4 5 6 7 8 9 10 11 12 13 14 15 16
135
FTPA31 PHFO 011738
TAFHOG
TAF
PHOG 011738Z 0118/0218 06010G18KT P6SM FEW030 BKN060
     FM012000 05020G28KT P6SM FEW030 SCT060
     FM020600 05012KT P6SM VCSH SCT030 BKN050
      AMD LTD TO VIS AND WIND 0209/0216=

USA.gov is the U.S. government's official web portal to all federal, state and local government web resources and services.